createdAt,value
2023-04-17T00:04:11.380Z,7.30
2023-04-17T00:09:15.348Z,7.30
2023-04-17T00:14:20.084Z,7.20
2023-04-17T00:19:23.360Z,7.10
2023-04-17T00:24:26.528Z,7.10
2023-04-17T00:29:32.740Z,7.20
2023-04-17T00:34:35.999Z,7.00
2023-04-17T00:39:39.199Z,7.00
2023-04-17T00:44:43.835Z,7.00
2023-04-17T00:49:47.757Z,6.90
2023-04-17T00:54:51.161Z,6.70
2023-04-17T00:59:56.823Z,6.70
2023-04-17T01:05:00.134Z,6.60
2023-04-17T01:10:04.095Z,6.50
2023-04-17T01:15:09.879Z,6.60
2023-04-17T01:20:13.654Z,6.50
2023-04-17T01:25:18.655Z,6.50
2023-04-17T01:30:25.161Z,6.50
2023-04-17T01:35:39.294Z,6.50
2023-04-17T01:40:45.589Z,6.40
2023-04-17T01:45:48.865Z,6.30
2023-04-17T01:50:52.164Z,6.20
2023-04-17T01:55:56.862Z,6.20
2023-04-17T02:01:00.585Z,6.00
2023-04-17T02:06:04.316Z,5.90
2023-04-17T02:11:10.203Z,5.90
2023-04-17T02:16:14.714Z,5.90
2023-04-17T02:21:19.107Z,5.90
2023-04-17T02:26:24.326Z,5.90
2023-04-17T02:31:28.069Z,5.90
2023-04-17T02:36:32.144Z,5.90
2023-04-17T02:41:37.136Z,5.90
2023-04-17T02:46:43.956Z,5.90
2023-04-17T02:51:47.601Z,5.70
2023-04-17T02:56:53.100Z,5.60
2023-04-17T03:01:59.716Z,5.60
2023-04-17T03:07:04.047Z,5.50
2023-04-17T03:12:09.121Z,5.50
2023-04-17T03:17:14.553Z,5.30
2023-04-17T03:22:18.401Z,5.20
2023-04-17T03:27:24.889Z,5.10
2023-04-17T03:32:30.543Z,5.10
2023-04-17T03:37:33.824Z,5.00
2023-04-17T03:42:39.092Z,5.00
2023-04-17T03:47:42.718Z,4.80
2023-04-17T03:52:46.609Z,4.70
2023-04-17T03:57:52.068Z,4.60
2023-04-17T04:02:56.771Z,4.50
2023-04-17T04:08:05.105Z,4.50
2023-04-17T04:13:16.694Z,4.50
2023-04-17T04:18:26.692Z,4.40
2023-04-17T04:23:30.730Z,4.60
2023-04-17T04:28:35.928Z,4.80
2023-04-17T04:33:39.493Z,4.70
2023-04-17T04:38:43.663Z,4.70
2023-04-17T04:43:57.980Z,4.80
2023-04-17T04:49:01.394Z,5.00
2023-04-17T04:54:04.914Z,5.40
2023-04-17T04:59:13.286Z,5.40
2023-04-17T05:04:22.788Z,5.60
2023-04-17T05:09:31.589Z,5.90
2023-04-17T05:14:36.768Z,6.20
2023-04-17T05:19:40.231Z,6.50
2023-04-17T05:24:46.027Z,6.40
2023-04-17T05:29:50.921Z,6.30
2023-04-17T05:34:56.818Z,6.40
2023-04-17T05:40:07.209Z,6.40
2023-04-17T05:45:14.607Z,6.50
2023-04-17T05:50:18.195Z,6.30
2023-04-17T05:55:22.073Z,6.60
2023-04-17T06:00:31.238Z,6.50
2023-04-17T06:05:40.216Z,6.60
2023-04-17T06:10:45.775Z,6.70
2023-04-17T06:15:51.765Z,7.10
2023-04-17T06:20:56.152Z,7.20
2023-04-17T06:25:59.519Z,7.30
2023-04-17T06:31:04.291Z,7.50
2023-04-17T06:36:08.121Z,7.90
2023-04-17T06:41:18.958Z,8.00
2023-04-17T06:46:23.679Z,8.50
2023-04-17T06:51:28.724Z,8.10
2023-04-17T06:56:32.085Z,8.30
2023-04-17T07:01:38.194Z,8.20
2023-04-17T07:06:41.869Z,8.30
2023-04-17T07:11:45.190Z,9.10
2023-04-17T07:16:49.971Z,10.70
2023-04-17T07:21:53.262Z,10.90
2023-04-17T07:26:57.101Z,12.10
2023-04-17T07:32:04.167Z,13.20
2023-04-17T07:37:07.920Z,11.00
2023-04-17T07:42:11.493Z,10.70
2023-04-17T07:47:16.632Z,9.90
2023-04-17T07:52:20.062Z,9.90
2023-04-17T07:57:26.401Z,10.60
2023-04-17T08:02:31.064Z,11.60
2023-04-17T08:07:34.395Z,12.10
2023-04-17T08:12:37.876Z,11.60
2023-04-17T08:17:43.386Z,11.00
2023-04-17T08:22:46.924Z,11.20
2023-04-17T08:27:50.611Z,11.00
2023-04-17T08:32:57.437Z,12.60
2023-04-17T08:38:00.828Z,13.50
2023-04-17T08:43:05.309Z,13.70
2023-04-17T08:48:10.097Z,13.40
2023-04-17T08:53:13.296Z,13.60
2023-04-17T08:58:18.334Z,14.50
2023-04-17T09:03:23.172Z,13.90
2023-04-17T09:08:29.196Z,14.10
2023-04-17T09:13:40.229Z,14.60
2023-04-17T09:18:46.644Z,15.40
2023-04-17T09:23:52.438Z,15.80
2023-04-17T09:29:08.790Z,15.20
2023-04-17T09:34:14.401Z,15.10
2023-04-17T09:39:20.846Z,14.80
2023-04-17T09:44:26.952Z,14.30
2023-04-17T09:49:34.145Z,14.40
2023-04-17T09:54:39.449Z,15.00
2023-04-17T09:59:45.735Z,15.20
2023-04-17T10:04:50.360Z,15.60
2023-04-17T10:09:55.062Z,15.60
2023-04-17T10:14:58.664Z,15.90
2023-04-17T10:20:35.772Z,15.80
2023-04-17T10:25:39.141Z,15.20
2023-04-17T10:30:54.819Z,17.30
2023-04-17T10:36:00.180Z,18.00
2023-04-17T10:41:09.069Z,17.90
2023-04-17T10:46:14.206Z,16.70
2023-04-17T10:51:41.939Z,15.50
2023-04-17T10:56:49.307Z,14.00
2023-04-17T11:02:01.590Z,13.40
2023-04-17T11:07:07.242Z,13.20
2023-04-17T11:12:12.477Z,13.80
2023-04-17T11:17:15.917Z,14.80
2023-04-17T11:22:22.144Z,14.70
2023-04-17T11:27:25.597Z,13.70
2023-04-17T11:32:36.412Z,14.40
2023-04-17T11:38:06.659Z,13.60
2023-04-17T11:43:11.006Z,13.50
2023-04-17T11:48:16.125Z,13.70
2023-04-17T11:53:20.945Z,14.20
2023-04-17T11:58:24.713Z,15.40
2023-04-17T12:03:33.972Z,14.90
2023-04-17T12:08:47.376Z,15.10
2023-04-17T12:13:50.950Z,14.30
2023-04-17T12:18:55.309Z,14.00
2023-04-17T12:23:59.921Z,13.30
2023-04-17T12:29:03.491Z,13.00
2023-04-17T12:34:06.804Z,12.60
2023-04-17T12:39:13.068Z,11.50
2023-04-17T12:44:16.889Z,11.20
2023-04-17T12:49:20.599Z,10.90
2023-04-17T12:54:25.533Z,10.50
2023-04-17T12:59:28.818Z,10.10
2023-04-17T13:04:32.937Z,9.90
2023-04-17T13:09:37.855Z,9.80
2023-04-17T13:14:41.847Z,9.90
2023-04-17T13:19:45.320Z,10.20
2023-04-17T13:24:50.327Z,10.40
2023-04-17T13:29:54.976Z,10.90
2023-04-17T13:34:58.856Z,10.90
2023-04-17T13:40:05.532Z,10.50
2023-04-17T13:45:10.030Z,10.50
2023-04-17T13:50:14.252Z,10.40
2023-04-17T13:55:19.258Z,10.20
2023-04-17T14:00:23.208Z,10.10
2023-04-17T14:05:26.614Z,10.00
2023-04-17T14:10:31.265Z,9.80
2023-04-17T14:15:35.280Z,9.70
2023-04-17T14:20:39.092Z,9.50
2023-04-17T14:25:44.229Z,9.50
2023-04-17T14:30:47.634Z,9.50
2023-04-17T14:35:53.510Z,9.30
2023-04-17T14:40:58.301Z,9.40
2023-04-17T14:46:01.725Z,9.40
2023-04-17T14:51:06.018Z,9.60
2023-04-17T14:56:11.001Z,9.70
2023-04-17T15:01:14.472Z,9.30
2023-04-17T15:06:18.906Z,8.90
2023-04-17T15:11:23.576Z,8.80
2023-04-17T15:16:27.024Z,8.90
2023-04-17T15:21:31.149Z,8.90
2023-04-17T15:26:36.155Z,9.00
2023-04-17T15:31:40.340Z,9.00
2023-04-17T15:36:43.769Z,9.20
2023-04-17T15:41:48.747Z,9.10
2023-04-17T15:46:52.546Z,8.90
2023-04-17T15:51:56.045Z,9.00
2023-04-17T15:57:00.985Z,8.80
2023-04-17T16:02:04.872Z,8.60
2023-04-17T16:07:08.390Z,8.40
2023-04-17T16:12:13.087Z,8.20
2023-04-17T16:17:16.444Z,8.00
2023-04-17T16:22:19.782Z,8.00
2023-04-17T16:27:25.784Z,8.10
2023-04-17T16:32:29.214Z,8.00
2023-04-17T16:37:32.482Z,8.20
2023-04-17T16:42:37.371Z,8.10
2023-04-17T16:47:41.147Z,7.90
2023-04-17T16:52:44.486Z,7.90
2023-04-17T16:57:50.340Z,7.90
2023-04-17T17:02:53.640Z,7.80
2023-04-17T17:07:57.028Z,8.00
2023-04-17T17:13:01.920Z,8.00
2023-04-17T17:18:06.149Z,7.90
2023-04-17T17:23:09.541Z,7.80
2023-04-17T17:28:14.350Z,7.90
2023-04-17T17:33:18.251Z,8.00
2023-04-17T17:38:21.585Z,7.80
2023-04-17T17:43:28.081Z,7.70
2023-04-17T17:48:31.453Z,7.60
2023-04-17T17:53:34.878Z,7.70
2023-04-17T17:58:39.471Z,7.60
2023-04-17T18:03:43.443Z,7.70
2023-04-17T18:08:46.962Z,7.60
2023-04-17T18:13:51.717Z,7.60
2023-04-17T18:18:56.585Z,7.60
2023-04-17T18:24:00.451Z,7.60
2023-04-17T18:29:05.850Z,7.60
2023-04-17T18:34:09.368Z,7.60
2023-04-17T18:39:15.524Z,7.50
2023-04-17T18:44:22.347Z,7.70
2023-04-17T18:49:27.562Z,7.50
2023-04-17T18:54:31.086Z,7.40
2023-04-17T18:59:35.827Z,7.60
2023-04-17T19:04:39.102Z,7.50
2023-04-17T19:09:42.480Z,7.40
2023-04-17T19:14:47.134Z,7.30
2023-04-17T19:19:50.654Z,7.20
2023-04-17T19:24:53.927Z,7.20
2023-04-17T19:29:58.649Z,7.20
2023-04-17T19:35:02.006Z,7.40
2023-04-17T19:40:21.306Z,7.20
2023-04-17T19:45:32.344Z,7.30
2023-04-17T19:50:36.127Z,7.30
2023-04-17T19:55:41.578Z,7.20
2023-04-17T20:00:46.600Z,7.10
2023-04-17T20:05:50.541Z,7.00
2023-04-17T20:10:53.986Z,7.00
2023-04-17T20:15:58.790Z,7.10
2023-04-17T20:21:06.564Z,7.10
2023-04-17T20:26:10.717Z,7.00
2023-04-17T20:31:15.840Z,7.00
2023-04-17T20:36:21.352Z,7.00
2023-04-17T20:41:24.666Z,7.00
2023-04-17T20:46:29.522Z,6.90
2023-04-17T20:51:32.933Z,6.90
2023-04-17T20:56:36.288Z,6.90
2023-04-17T21:01:40.952Z,6.90
2023-04-17T21:06:44.326Z,6.90
2023-04-17T21:11:47.921Z,6.80
2023-04-17T21:16:54.887Z,6.80
2023-04-17T21:21:58.673Z,6.80
2023-04-17T21:27:02.529Z,6.80
2023-04-17T21:32:07.417Z,6.80
2023-04-17T21:37:10.748Z,6.80
2023-04-17T21:42:14.081Z,6.80
2023-04-17T21:47:19.678Z,6.80
2023-04-17T21:52:22.839Z,6.70
2023-04-17T21:57:27.137Z,6.80
2023-04-17T22:02:31.856Z,6.60
2023-04-17T22:07:47.223Z,6.70
2023-04-17T22:12:57.747Z,6.70
2023-04-17T22:18:02.477Z,6.60
2023-04-17T22:23:06.978Z,6.60
2023-04-17T22:28:10.622Z,6.60
2023-04-17T22:33:15.677Z,6.50
2023-04-17T22:38:20.748Z,6.40
2023-04-17T22:43:24.304Z,6.40
2023-04-17T22:48:28.988Z,6.30
2023-04-17T22:53:32.687Z,6.10
2023-04-17T22:58:36.563Z,6.00
2023-04-17T23:03:41.769Z,6.00
2023-04-17T23:08:45.272Z,6.00
2023-04-17T23:13:48.616Z,5.90
2023-04-17T23:18:53.468Z,5.80
2023-04-17T23:23:56.702Z,5.80
2023-04-17T23:28:59.969Z,5.80
2023-04-17T23:34:05.236Z,5.70
2023-04-17T23:39:08.363Z,5.70
2023-04-17T23:44:11.901Z,5.60
2023-04-17T23:49:16.678Z,5.50
2023-04-17T23:54:20.260Z,5.40
2023-04-17T23:59:23.571Z,5.40
